Terminal Aerodrome Forecast
Issued by NWS

Home | Current Version | Previous Version | Text Only | Print | Product List | Glossary On
Versions: 1 2 3 4 5 6 7 8 9 10 11 12 13
000
FTUS46 KEKA 271146
TAFUKI
TAF
KUKI 271146Z 2712/2812 00000KT P6SM OVC150
     FM272000 16005KT P6SM FEW040 OVC070
     FM280100 17003KT P6SM OVC070=

USA.gov is the U.S. government's official web portal to all federal, state and local government web resources and services.